createdAt,value
2019-03-20T00:00:36.909Z,72.66
2019-03-20T00:03:06.592Z,72.83
2019-03-20T00:05:36.039Z,72.60
2019-03-20T00:08:05.610Z,72.36
2019-03-20T00:10:35.324Z,72.57
2019-03-20T00:13:04.820Z,73.35
2019-03-20T00:15:34.257Z,73.05
2019-03-20T00:18:03.684Z,72.60
2019-03-20T00:20:33.449Z,72.53
2019-03-20T00:23:02.876Z,72.52
2019-03-20T00:25:32.300Z,72.66
2019-03-20T00:28:01.759Z,72.51
2019-03-20T00:30:31.182Z,73.54
2019-03-20T00:33:00.622Z,74.08
2019-03-20T00:35:30.047Z,74.80
2019-03-20T00:37:59.489Z,74.92
2019-03-20T00:40:28.919Z,75.31
2019-03-20T00:42:58.431Z,75.34
2019-03-20T00:45:28.199Z,75.76
2019-03-20T00:47:57.639Z,75.81
2019-03-20T00:50:27.067Z,75.66
2019-03-20T00:52:56.508Z,76.31
2019-03-20T00:55:25.942Z,76.26
2019-03-20T00:57:55.372Z,76.28
2019-03-20T01:00:25.644Z,75.80
2019-03-20T01:02:55.146Z,75.96
2019-03-20T01:05:24.568Z,76.73
2019-03-20T01:07:54.015Z,76.60
2019-03-20T01:10:27.505Z,76.02
2019-03-20T01:12:56.937Z,76.09
2019-03-20T01:15:26.375Z,76.25
2019-03-20T01:17:55.815Z,76.24
2019-03-20T01:20:25.621Z,76.32
2019-03-20T01:22:55.062Z,76.11
2019-03-20T01:25:24.566Z,75.86
2019-03-20T01:27:54.005Z,75.97
2019-03-20T01:30:33.009Z,76.09
2019-03-20T01:33:05.521Z,75.78
2019-03-20T01:35:34.932Z,75.89
2019-03-20T01:38:04.705Z,76.61
2019-03-20T01:40:34.129Z,77.18
2019-03-20T01:43:03.642Z,77.15
2019-03-20T01:45:33.146Z,77.39
2019-03-20T01:48:02.718Z,77.61
2019-03-20T01:50:32.147Z,77.57
2019-03-20T01:53:01.583Z,77.96
2019-03-20T01:55:31.015Z,77.48
2019-03-20T01:58:00.691Z,76.86
2019-03-20T02:00:30.193Z,76.47
2019-03-20T02:02:59.632Z,76.04
2019-03-20T02:05:35.934Z,75.89
2019-03-20T02:08:00.229Z,75.54
2019-03-20T02:10:29.651Z,75.45
2019-03-20T02:12:59.089Z,75.47
2019-03-20T02:15:38.154Z,75.85
2019-03-20T02:17:59.691Z,76.87
2019-03-20T02:20:29.122Z,76.57
2019-03-20T02:22:58.563Z,75.90
2019-03-20T02:25:27.996Z,75.57
2019-03-20T02:27:57.440Z,75.90
2019-03-20T02:30:26.879Z,76.27
2019-03-20T02:32:56.312Z,75.81
2019-03-20T02:35:25.750Z,75.41
2019-03-20T02:37:55.180Z,74.92
2019-03-20T02:40:24.617Z,75.04
2019-03-20T02:42:54.041Z,75.15
2019-03-20T02:45:23.471Z,74.74
2019-03-20T02:47:52.911Z,75.16
2019-03-20T02:50:22.340Z,75.49
2019-03-20T02:52:51.808Z,75.19
2019-03-20T02:55:21.235Z,74.94
2019-03-20T02:57:50.680Z,75.68
2019-03-20T03:00:23.123Z,75.71
2019-03-20T03:02:52.631Z,76.24
2019-03-20T03:05:22.061Z,76.97
2019-03-20T03:07:51.497Z,76.57
2019-03-20T03:10:20.935Z,76.80
2019-03-20T03:12:50.400Z,77.27
2019-03-20T03:15:19.822Z,77.21
2019-03-20T03:17:49.261Z,77.23
2019-03-20T03:20:18.688Z,77.69
2019-03-20T03:22:48.117Z,77.88
2019-03-20T03:25:17.619Z,78.32
2019-03-20T03:27:47.063Z,78.18
2019-03-20T03:30:18.137Z,77.10
2019-03-20T03:32:47.569Z,76.93
2019-03-20T03:35:19.454Z,76.93
2019-03-20T03:37:48.222Z,76.92
2019-03-20T03:40:20.727Z,77.50
2019-03-20T03:42:50.174Z,78.38
2019-03-20T03:45:19.672Z,78.43
2019-03-20T03:47:49.446Z,78.67
2019-03-20T03:50:18.888Z,78.49
2019-03-20T03:52:48.321Z,78.30
2019-03-20T03:55:17.926Z,78.59
2019-03-20T03:57:47.368Z,78.81
2019-03-20T04:00:20.819Z,79.04
2019-03-20T04:02:50.255Z,78.98
2019-03-20T04:05:19.710Z,79.06
2019-03-20T04:07:49.153Z,78.02
2019-03-20T04:10:19.123Z,78.17
2019-03-20T04:12:48.556Z,78.08
2019-03-20T04:15:18.264Z,77.69
2019-03-20T04:17:47.693Z,77.67
2019-03-20T04:20:21.071Z,77.06
2019-03-20T04:22:50.467Z,76.11
2019-03-20T04:25:19.913Z,76.92
2019-03-20T04:27:49.333Z,76.99
2019-03-20T04:30:19.820Z,77.68
2019-03-20T04:32:49.253Z,77.90
2019-03-20T04:35:18.724Z,77.98
2019-03-20T04:37:48.139Z,78.58
2019-03-20T04:40:18.990Z,78.92
2019-03-20T04:42:48.426Z,78.66
2019-03-20T04:45:18.249Z,78.61
2019-03-20T04:47:47.675Z,78.25
2019-03-20T04:50:17.654Z,78.51
2019-03-20T04:52:47.093Z,78.37
2019-03-20T04:55:16.613Z,77.84
2019-03-20T04:57:46.260Z,77.80
2019-03-20T05:00:21.263Z,77.42
2019-03-20T05:02:50.756Z,77.36
2019-03-20T05:05:20.597Z,77.72
2019-03-20T05:07:50.025Z,78.14
2019-03-20T05:10:20.605Z,78.60
2019-03-20T05:12:50.084Z,78.72
2019-03-20T05:15:19.606Z,78.64
2019-03-20T05:17:49.039Z,78.95
2019-03-20T05:20:19.903Z,78.97
2019-03-20T05:22:49.344Z,78.67
2019-03-20T05:25:18.790Z,78.19
2019-03-20T05:27:48.234Z,77.87
2019-03-20T05:30:17.773Z,78.10
2019-03-20T05:32:47.209Z,77.82
2019-03-20T05:35:16.908Z,78.63
2019-03-20T05:37:46.346Z,78.65
2019-03-20T05:40:19.938Z,79.17
2019-03-20T05:42:49.316Z,79.22
2019-03-20T05:45:19.783Z,79.81
2019-03-20T05:47:49.353Z,80.07
2019-03-20T05:50:19.070Z,80.00
2019-03-20T05:52:48.517Z,79.63
2019-03-20T05:55:18.041Z,79.26
2019-03-20T05:57:47.471Z,78.66
2019-03-20T06:00:23.134Z,77.93
2019-03-20T06:02:52.573Z,78.21
2019-03-20T06:05:22.009Z,77.97
2019-03-20T06:07:51.518Z,77.60
2019-03-20T06:10:20.948Z,77.59
2019-03-20T06:12:50.728Z,77.61
2019-03-20T06:15:20.154Z,77.84
2019-03-20T06:17:49.596Z,77.63
2019-03-20T06:20:19.051Z,77.71
2019-03-20T06:22:48.496Z,77.83
2019-03-20T06:25:21.109Z,77.58
2019-03-20T06:27:49.152Z,77.49
2019-03-20T06:30:22.379Z,77.42
2019-03-20T06:32:51.819Z,77.25
2019-03-20T06:35:21.261Z,77.07
2019-03-20T06:37:51.025Z,77.43
2019-03-20T06:40:20.467Z,77.24
2019-03-20T06:42:49.917Z,77.27
2019-03-20T06:45:21.252Z,76.86
2019-03-20T06:47:50.710Z,76.71
2019-03-20T06:50:22.613Z,76.41
2019-03-20T06:52:52.053Z,76.31
2019-03-20T06:55:21.503Z,76.40
2019-03-20T06:57:50.946Z,76.10
2019-03-20T07:00:54.234Z,76.19
2019-03-20T07:03:48.793Z,76.38
2019-03-20T07:06:22.945Z,76.20
2019-03-20T07:09:05.740Z,75.95
2019-03-20T07:11:39.622Z,75.73
2019-03-20T07:14:09.054Z,75.62
2019-03-20T07:16:38.496Z,75.20
2019-03-20T07:19:08.435Z,75.28
2019-03-20T07:21:37.881Z,74.87
2019-03-20T07:24:07.305Z,74.52
2019-03-20T07:26:36.756Z,73.99
2019-03-20T07:29:06.338Z,73.96
2019-03-20T07:31:35.864Z,73.47
2019-03-20T07:34:05.353Z,73.33
2019-03-20T07:36:34.870Z,73.08
2019-03-20T07:39:07.006Z,72.80
2019-03-20T07:41:36.434Z,72.47
2019-03-20T07:44:05.920Z,72.18
2019-03-20T07:46:35.631Z,71.76
2019-03-20T07:49:05.131Z,71.10
2019-03-20T07:51:34.803Z,71.08
2019-03-20T07:54:04.603Z,70.82
2019-03-20T07:56:34.046Z,71.57
2019-03-20T07:59:03.500Z,70.58
2019-03-20T08:01:32.934Z,70.20
2019-03-20T08:04:02.370Z,70.18
2019-03-20T08:06:31.800Z,69.83
2019-03-20T08:09:01.239Z,70.04
2019-03-20T08:11:30.668Z,69.64
2019-03-20T08:14:00.122Z,70.48
2019-03-20T08:16:29.555Z,69.83
2019-03-20T08:18:58.990Z,69.28
2019-03-20T08:21:28.426Z,69.10
2019-03-20T08:23:58.171Z,68.80
2019-03-20T08:26:27.606Z,68.62
2019-03-20T08:28:57.046Z,68.53
2019-03-20T08:31:26.490Z,68.28
2019-03-20T08:33:55.939Z,68.47
2019-03-20T08:36:25.375Z,67.97
2019-03-20T08:38:54.823Z,67.71
2019-03-20T08:41:24.246Z,67.54
2019-03-20T08:43:53.754Z,67.23
2019-03-20T08:46:23.215Z,66.48
2019-03-20T08:48:52.706Z,66.08
2019-03-20T08:51:22.117Z,65.86
2019-03-20T08:53:51.618Z,65.21
2019-03-20T08:56:21.093Z,65.22
2019-03-20T08:58:50.588Z,65.10
2019-03-20T09:01:28.224Z,65.19
2019-03-20T09:03:51.231Z,65.09
2019-03-20T09:06:20.644Z,65.03
2019-03-20T09:08:50.085Z,64.83
2019-03-20T09:11:19.513Z,64.91
2019-03-20T09:13:49.011Z,64.39
2019-03-20T09:16:18.426Z,64.15
2019-03-20T09:18:47.874Z,63.05
2019-03-20T09:21:17.317Z,63.11
2019-03-20T09:23:46.758Z,62.95
2019-03-20T09:26:16.183Z,62.90
2019-03-20T09:28:45.614Z,63.05
2019-03-20T09:31:15.079Z,62.68
2019-03-20T09:33:44.518Z,60.91
2019-03-20T09:36:13.909Z,60.17
2019-03-20T09:38:43.983Z,59.90
2019-03-20T09:41:13.451Z,59.42
2019-03-20T09:43:42.900Z,60.27
2019-03-20T09:46:12.319Z,60.18
2019-03-20T09:48:41.932Z,58.10
2019-03-20T09:51:11.285Z,57.36
2019-03-20T09:53:41.029Z,56.66
2019-03-20T09:56:10.456Z,55.77
2019-03-20T09:58:39.894Z,51.15
2019-03-20T10:01:09.322Z,49.35
2019-03-20T10:03:38.832Z,52.60
2019-03-20T10:06:08.294Z,53.11
2019-03-20T10:08:37.764Z,49.91
2019-03-20T10:11:07.240Z,52.31
2019-03-20T10:13:37.003Z,52.21
2019-03-20T10:16:06.479Z,46.13
2019-03-20T10:18:35.966Z,47.55
2019-03-20T10:21:05.515Z,48.69
2019-03-20T10:23:34.979Z,48.82
2019-03-20T10:26:04.423Z,49.28
2019-03-20T10:28:33.904Z,49.84
2019-03-20T10:31:03.342Z,49.40
2019-03-20T10:33:32.780Z,48.89
2019-03-20T10:36:02.274Z,45.61
2019-03-20T10:38:31.705Z,47.04
2019-03-20T10:41:01.208Z,48.54
2019-03-20T10:43:30.671Z,48.38
2019-03-20T10:46:00.146Z,48.20
2019-03-20T10:48:29.626Z,47.28
2019-03-20T10:50:59.172Z,46.20
2019-03-20T10:53:28.640Z,43.69
2019-03-20T10:55:58.125Z,43.02
2019-03-20T10:58:27.590Z,41.51
2019-03-20T11:00:57.076Z,43.10
2019-03-20T11:03:26.546Z,44.23
2019-03-20T11:05:56.034Z,42.33
2019-03-20T11:08:25.841Z,43.86
2019-03-20T11:10:55.333Z,41.36
2019-03-20T11:13:24.805Z,40.66
2019-03-20T11:15:54.284Z,42.87
2019-03-20T11:18:23.754Z,44.81
2019-03-20T11:20:53.721Z,41.79
2019-03-20T11:23:23.390Z,42.44
2019-03-20T11:25:52.894Z,41.16
2019-03-20T11:28:22.367Z,42.52
2019-03-20T11:30:51.875Z,42.82
2019-03-20T11:33:21.349Z,42.25
2019-03-20T11:35:51.892Z,44.01
2019-03-20T11:38:21.358Z,43.40
2019-03-20T11:40:51.167Z,43.15
2019-03-20T11:43:20.642Z,40.76
2019-03-20T11:45:50.133Z,40.27
2019-03-20T11:48:19.606Z,42.60
2019-03-20T11:50:49.122Z,40.38
2019-03-20T11:53:18.605Z,41.55
2019-03-20T11:55:48.140Z,41.66
2019-03-20T11:58:17.778Z,41.87
2019-03-20T12:00:47.254Z,41.99
2019-03-20T12:03:16.749Z,40.90
2019-03-20T12:05:46.223Z,39.83
2019-03-20T12:08:15.774Z,41.19
2019-03-20T12:10:45.277Z,40.77
2019-03-20T12:13:14.752Z,38.25
2019-03-20T12:15:44.243Z,37.53
2019-03-20T12:18:13.750Z,38.97
2019-03-20T12:20:43.442Z,38.60
2019-03-20T12:23:12.914Z,35.06
2019-03-20T12:25:42.475Z,35.03
2019-03-20T12:28:11.937Z,35.35
2019-03-20T12:30:41.790Z,36.54
2019-03-20T12:33:11.256Z,38.07
2019-03-20T12:35:45.803Z,38.58
2019-03-20T12:38:15.640Z,37.72
2019-03-20T12:40:45.120Z,37.17
2019-03-20T12:43:14.607Z,36.82
2019-03-20T12:45:44.094Z,35.03
2019-03-20T12:48:17.505Z,35.51
2019-03-20T12:50:46.983Z,35.49
2019-03-20T12:53:23.756Z,36.68
2019-03-20T12:55:53.241Z,36.77
2019-03-20T12:58:22.720Z,36.96
2019-03-20T13:00:54.387Z,37.85
2019-03-20T13:03:23.415Z,37.91
2019-03-20T13:05:53.238Z,35.08
2019-03-20T13:08:22.717Z,36.05
2019-03-20T13:10:52.200Z,35.70
2019-03-20T13:13:21.677Z,34.77
2019-03-20T13:15:51.163Z,35.97
2019-03-20T13:18:20.640Z,34.37
2019-03-20T13:20:50.120Z,34.57
2019-03-20T13:23:27.267Z,35.38
2019-03-20T13:25:57.102Z,35.66
2019-03-20T13:28:26.578Z,36.75
2019-03-20T13:31:13.155Z,35.61
2019-03-20T13:33:42.627Z,33.95
2019-03-20T13:36:12.409Z,33.33
2019-03-20T13:38:42.859Z,32.76
2019-03-20T13:41:12.348Z,33.00
2019-03-20T13:43:41.832Z,33.46
2019-03-20T13:46:11.312Z,34.84
2019-03-20T13:48:40.793Z,35.25
2019-03-20T13:51:10.278Z,35.88
2019-03-20T13:53:39.755Z,36.43
2019-03-20T13:56:09.243Z,36.27
2019-03-20T13:58:38.719Z,34.19
2019-03-20T14:01:08.246Z,34.00
2019-03-20T14:03:37.694Z,34.88
2019-03-20T14:06:07.184Z,35.59
2019-03-20T14:08:36.661Z,34.46
2019-03-20T14:11:06.149Z,33.65
2019-03-20T14:13:35.867Z,34.82
2019-03-20T14:16:05.352Z,33.52
2019-03-20T14:18:34.829Z,33.80
2019-03-20T14:21:04.316Z,33.55
2019-03-20T14:23:33.786Z,33.87
2019-03-20T14:26:03.275Z,34.41
2019-03-20T14:28:32.754Z,33.96
2019-03-20T14:31:02.247Z,32.86
2019-03-20T14:33:31.719Z,33.31
2019-03-20T14:36:01.206Z,33.58
2019-03-20T14:38:30.689Z,32.88
2019-03-20T14:41:00.174Z,33.42
2019-03-20T14:43:29.728Z,34.25
2019-03-20T14:45:59.210Z,34.11
2019-03-20T14:48:28.697Z,34.07
2019-03-20T14:50:58.533Z,34.09
2019-03-20T14:53:28.016Z,33.27
2019-03-20T14:55:57.540Z,33.30
2019-03-20T14:58:27.060Z,33.42
2019-03-20T15:00:56.531Z,32.60
2019-03-20T15:03:26.984Z,32.95
2019-03-20T15:05:56.470Z,32.57
2019-03-20T15:08:26.053Z,32.97
2019-03-20T15:10:55.543Z,32.63
2019-03-20T15:13:25.037Z,32.33
2019-03-20T15:16:05.601Z,32.93
2019-03-20T15:18:35.080Z,32.73
2019-03-20T15:21:04.566Z,33.11
2019-03-20T15:23:34.048Z,32.81
2019-03-20T15:26:03.538Z,33.31
2019-03-20T15:28:33.013Z,32.61
2019-03-20T15:31:02.506Z,31.71
2019-03-20T15:33:31.987Z,32.22
2019-03-20T15:36:01.484Z,31.99
2019-03-20T15:38:30.972Z,32.24
2019-03-20T15:41:00.444Z,32.13
2019-03-20T15:43:29.949Z,32.89
2019-03-20T15:45:59.439Z,33.17
2019-03-20T15:48:28.915Z,30.17
2019-03-20T15:50:58.395Z,25.50
2019-03-20T15:53:27.872Z,22.69
2019-03-20T15:55:57.354Z,21.52
2019-03-20T15:58:26.838Z,19.96
2019-03-20T16:00:56.314Z,19.79
2019-03-20T16:03:36.019Z,18.19
2019-03-20T16:06:05.504Z,17.45
2019-03-20T16:08:35.037Z,15.89
2019-03-20T16:11:06.870Z,15.15
2019-03-20T16:13:35.759Z,13.48
2019-03-20T16:16:05.383Z,13.93
2019-03-20T16:18:34.869Z,14.16
2019-03-20T16:21:04.363Z,14.21
2019-03-20T16:23:34.131Z,14.07
2019-03-20T16:26:03.613Z,15.11
2019-03-20T16:28:33.091Z,15.84
2019-03-20T16:31:02.571Z,15.96
2019-03-20T16:33:32.066Z,15.13
2019-03-20T16:36:01.869Z,15.45
2019-03-20T16:38:31.356Z,16.42
2019-03-20T16:41:00.829Z,15.81
2019-03-20T16:43:30.316Z,17.03
2019-03-20T16:46:00.104Z,17.59
2019-03-20T16:48:29.584Z,20.11
2019-03-20T16:50:59.063Z,21.65
2019-03-20T16:53:28.561Z,24.50
2019-03-20T16:55:58.035Z,25.80
2019-03-20T16:58:28.383Z,26.96
2019-03-20T17:00:57.859Z,25.53
2019-03-20T17:03:27.342Z,27.01
2019-03-20T17:05:56.819Z,27.02
2019-03-20T17:08:26.310Z,27.40
2019-03-20T17:10:55.780Z,26.81
2019-03-20T17:13:25.286Z,27.17
2019-03-20T17:15:54.738Z,29.39
2019-03-20T17:18:24.232Z,28.10
2019-03-20T17:20:53.707Z,28.62
2019-03-20T17:23:23.524Z,28.84
2019-03-20T17:25:53.012Z,29.91
2019-03-20T17:28:22.497Z,30.02
2019-03-20T17:30:54.704Z,30.38
2019-03-20T17:33:24.518Z,30.50
2019-03-20T17:35:54.029Z,31.26
2019-03-20T17:38:23.517Z,32.03
2019-03-20T17:40:53.078Z,31.42
2019-03-20T17:43:22.541Z,32.81
2019-03-20T17:45:52.088Z,33.50
2019-03-20T17:48:21.568Z,33.96
2019-03-20T17:50:51.041Z,34.68
2019-03-20T17:53:20.515Z,33.74
2019-03-20T17:55:50.178Z,34.50
2019-03-20T17:58:19.654Z,35.23
2019-03-20T18:00:50.823Z,35.31
2019-03-20T18:03:20.309Z,36.37
2019-03-20T18:05:49.797Z,35.25
2019-03-20T18:08:19.265Z,35.54
2019-03-20T18:10:48.770Z,35.83
2019-03-20T18:13:18.253Z,35.62
2019-03-20T18:15:47.766Z,36.42
2019-03-20T18:18:17.213Z,37.13
2019-03-20T18:20:46.704Z,37.05
2019-03-20T18:23:16.171Z,37.54
2019-03-20T18:25:45.666Z,37.75
2019-03-20T18:28:15.401Z,38.08
2019-03-20T18:30:45.327Z,38.81
2019-03-20T18:33:14.816Z,39.44
2019-03-20T18:35:44.296Z,39.40
2019-03-20T18:38:13.775Z,39.12
2019-03-20T18:40:43.257Z,39.41
2019-03-20T18:43:12.724Z,39.68
2019-03-20T18:45:42.204Z,39.98
2019-03-20T18:48:11.624Z,40.62
2019-03-20T18:50:41.077Z,41.03
2019-03-20T18:53:10.560Z,41.42
2019-03-20T18:55:39.993Z,42.61
2019-03-20T18:58:09.636Z,42.70
2019-03-20T19:00:39.071Z,42.78
2019-03-20T19:03:27.907Z,43.70
2019-03-20T19:06:22.300Z,44.61
2019-03-20T19:08:51.707Z,45.31
2019-03-20T19:11:21.240Z,45.65
2019-03-20T19:13:50.676Z,45.77
2019-03-20T19:16:20.120Z,45.65
2019-03-20T19:18:49.542Z,45.86
2019-03-20T19:21:19.003Z,46.11
2019-03-20T19:23:48.430Z,45.90
2019-03-20T19:26:18.174Z,46.36
2019-03-20T19:28:47.608Z,46.50
2019-03-20T19:31:17.060Z,46.63
2019-03-20T19:33:46.498Z,47.09
2019-03-20T19:36:15.942Z,47.59
2019-03-20T19:38:45.372Z,47.88
2019-03-20T19:41:14.816Z,48.09
2019-03-20T19:43:44.246Z,47.94
2019-03-20T19:46:13.692Z,48.20
2019-03-20T19:48:43.117Z,48.79
2019-03-20T19:51:12.563Z,49.15
2019-03-20T19:53:41.993Z,49.37
2019-03-20T19:56:11.439Z,50.15
2019-03-20T19:58:40.870Z,50.93
2019-03-20T20:01:10.373Z,51.20
2019-03-20T20:03:39.812Z,51.52
2019-03-20T20:06:11.278Z,50.96
2019-03-20T20:08:40.403Z,51.27
2019-03-20T20:11:09.856Z,51.06
2019-03-20T20:13:39.286Z,51.76
2019-03-20T20:16:08.721Z,51.77
2019-03-20T20:18:38.164Z,51.56
2019-03-20T20:21:07.604Z,52.70
2019-03-20T20:23:37.028Z,52.54
2019-03-20T20:26:06.473Z,52.63
2019-03-20T20:28:35.899Z,53.11
2019-03-20T20:31:05.339Z,53.79
2019-03-20T20:33:34.770Z,53.78
2019-03-20T20:36:04.253Z,53.99
2019-03-20T20:38:33.802Z,54.52
2019-03-20T20:41:03.240Z,54.90
2019-03-20T20:43:32.675Z,54.80
2019-03-20T20:46:02.116Z,55.09
2019-03-20T20:48:31.546Z,55.57
2019-03-20T20:51:00.986Z,55.80
2019-03-20T20:53:30.418Z,55.85
2019-03-20T20:56:00.327Z,56.43
2019-03-20T20:58:30.021Z,56.93
2019-03-20T21:00:59.455Z,57.44
2019-03-20T21:03:28.885Z,57.55
2019-03-20T21:05:58.322Z,57.33
2019-03-20T21:08:27.905Z,57.15
2019-03-20T21:10:57.307Z,57.09
2019-03-20T21:13:26.751Z,57.19
2019-03-20T21:15:56.255Z,57.50
2019-03-20T21:18:48.447Z,57.72
2019-03-20T21:21:17.882Z,58.44
2019-03-20T21:24:23.814Z,58.13
2019-03-20T21:27:09.841Z,58.08
2019-03-20T21:29:52.986Z,58.57
2019-03-20T21:32:35.909Z,58.64
2019-03-20T21:35:49.505Z,59.71
2019-03-20T21:38:17.369Z,59.95
2019-03-20T21:40:57.364Z,60.09
2019-03-20T21:43:49.711Z,60.71
2019-03-20T21:46:41.784Z,61.38
2019-03-20T21:49:11.218Z,61.66
2019-03-20T21:51:40.646Z,61.47
2019-03-20T21:54:34.396Z,62.08
2019-03-20T21:57:14.439Z,62.03
2019-03-20T21:59:54.274Z,61.22
2019-03-20T22:02:46.096Z,60.87
2019-03-20T22:05:56.415Z,60.91
2019-03-20T22:08:25.858Z,61.37
2019-03-20T22:11:02.668Z,61.77
2019-03-20T22:13:45.607Z,61.85
2019-03-20T22:16:31.396Z,62.18
2019-03-20T22:19:43.325Z,61.88
2019-03-20T22:22:43.005Z,61.49
2019-03-20T22:25:35.094Z,62.53
2019-03-20T22:28:50.100Z,63.29
2019-03-20T22:31:20.645Z,63.95
2019-03-20T22:34:47.320Z,64.27
2019-03-20T22:37:18.700Z,63.81
2019-03-20T22:40:19.266Z,63.51
2019-03-20T22:43:16.074Z,63.82
2019-03-20T22:46:05.047Z,64.04
2019-03-20T22:49:11.284Z,64.35
2019-03-20T22:52:21.544Z,64.48
2019-03-20T22:55:48.682Z,64.60
2019-03-20T22:58:46.137Z,65.40
2019-03-20T23:01:29.275Z,65.37
2019-03-20T23:04:09.372Z,64.34
2019-03-20T23:06:38.795Z,64.37
2019-03-20T23:09:10.349Z,64.64
2019-03-20T23:11:40.051Z,65.00
2019-03-20T23:14:09.490Z,65.64
2019-03-20T23:16:38.992Z,66.20
2019-03-20T23:19:08.423Z,66.11
2019-03-20T23:21:37.855Z,66.31
2019-03-20T23:24:07.304Z,65.93
2019-03-20T23:26:36.740Z,65.50
2019-03-20T23:29:06.180Z,65.28
2019-03-20T23:31:35.980Z,64.88
2019-03-20T23:34:05.425Z,65.11
2019-03-20T23:36:34.858Z,65.18
2019-03-20T23:39:06.894Z,65.54
2019-03-20T23:41:36.672Z,65.75
2019-03-20T23:44:06.108Z,66.14
2019-03-20T23:46:35.950Z,66.60
2019-03-20T23:49:19.322Z,67.14
2019-03-20T23:51:48.748Z,67.24
2019-03-20T23:54:23.170Z,67.16
2019-03-20T23:56:52.861Z,67.34
2019-03-20T23:59:22.295Z,67.58
